sensor_id;sensor_type;location;lat;lon;timestamp;pressure;altitude;pressure_sealevel;temperature;humidity
65173;BME280;69059;52.218;5.172;2023-04-09T00:00:42;101252.56;;;8.95;100.00
65173;BME280;69059;52.218;5.172;2023-04-09T00:03:10;101251.44;;;8.98;100.00
65173;BME280;69059;52.218;5.172;2023-04-09T00:05:39;101251.25;;;8.99;100.00
65173;BME280;69059;52.218;5.172;2023-04-09T00:08:07;101255.84;;;8.97;100.00
65173;BME280;69059;52.218;5.172;2023-04-09T00:10:34;101255.34;;;8.94;100.00
65173;BME280;69059;52.218;5.172;2023-04-09T00:13:02;101248.03;;;8.97;100.00
65173;BME280;69059;52.218;5.172;2023-04-09T00:15:30;101254.22;;;9.05;100.00
65173;BME280;69059;52.218;5.172;2023-04-09T00:17:59;101250.34;;;9.09;100.00
65173;BME280;69059;52.218;5.172;2023-04-09T00:20:27;101246.09;;;9.08;100.00
65173;BME280;69059;52.218;5.172;2023-04-09T00:22:54;101255.84;;;9.06;100.00
65173;BME280;69059;52.218;5.172;2023-04-09T00:25:23;101250.81;;;9.04;100.00
65173;BME280;69059;52.218;5.172;2023-04-09T00:27:51;101241.88;;;9.07;100.00
65173;BME280;69059;52.218;5.172;2023-04-09T00:30:19;101234.06;;;9.07;100.00
65173;BME280;69059;52.218;5.172;2023-04-09T00:32:47;101234.22;;;9.05;100.00
65173;BME280;69059;52.218;5.172;2023-04-09T00:35:16;101227.06;;;9.07;100.00
65173;BME280;69059;52.218;5.172;2023-04-09T00:37:44;101228.84;;;9.15;100.00
65173;BME280;69059;52.218;5.172;2023-04-09T00:40:12;101223.66;;;9.15;100.00
65173;BME280;69059;52.218;5.172;2023-04-09T00:42:40;101223.66;;;9.15;100.00
65173;BME280;69059;52.218;5.172;2023-04-09T00:45:09;101216.66;;;9.15;100.00
65173;BME280;69059;52.218;5.172;2023-04-09T00:47:37;101227.56;;;9.11;100.00
65173;BME280;69059;52.218;5.172;2023-04-09T00:50:05;101223.16;;;9.11;100.00
65173;BME280;69059;52.218;5.172;2023-04-09T00:52:35;101220.56;;;9.11;100.00
65173;BME280;69059;52.218;5.172;2023-04-09T00:55:04;101218.94;;;9.10;100.00
65173;BME280;69059;52.218;5.172;2023-04-09T00:57:32;101218.44;;;9.07;100.00
65173;BME280;69059;52.218;5.172;2023-04-09T01:00:00;101206.72;;;9.11;100.00
65173;BME280;69059;52.218;5.172;2023-04-09T01:02:29;101201.16;;;9.06;100.00
65173;BME280;69059;52.218;5.172;2023-04-09T01:04:57;101197.44;;;9.08;100.00
65173;BME280;69059;52.218;5.172;2023-04-09T01:07:33;101196.78;;;9.06;100.00
65173;BME280;69059;52.218;5.172;2023-04-09T01:10:11;101188.00;;;9.07;100.00
65173;BME280;69059;52.218;5.172;2023-04-09T01:12:53;101180.31;;;9.06;100.00
65173;BME280;69059;52.218;5.172;2023-04-09T01:15:25;101174.44;;;8.95;100.00
65173;BME280;69059;52.218;5.172;2023-04-09T01:17:58;101176.56;;;9.00;100.00
65173;BME280;69059;52.218;5.172;2023-04-09T01:20:34;101175.72;;;8.91;100.00
65173;BME280;69059;52.218;5.172;2023-04-09T01:23:10;101175.06;;;8.89;100.00
65173;BME280;69059;52.218;5.172;2023-04-09T01:25:52;101172.09;;;8.76;100.00
65173;BME280;69059;52.218;5.172;2023-04-09T01:28:31;101154.91;;;8.83;100.00
65173;BME280;69059;52.218;5.172;2023-04-09T01:31:01;101161.91;;;8.91;100.00
65173;BME280;69059;52.218;5.172;2023-04-09T01:33:31;101153.94;;;8.92;100.00
65173;BME280;69059;52.218;5.172;2023-04-09T01:36:00;101157.50;;;8.83;100.00
65173;BME280;69059;52.218;5.172;2023-04-09T01:38:32;101149.84;;;8.82;100.00
65173;BME280;69059;52.218;5.172;2023-04-09T01:41:02;101143.00;;;8.89;100.00
65173;BME280;69059;52.218;5.172;2023-04-09T01:43:32;101141.25;;;8.97;100.00
65173;BME280;69059;52.218;5.172;2023-04-09T01:46:01;101133.41;;;8.89;100.00
65173;BME280;69059;52.218;5.172;2023-04-09T01:48:29;101153.94;;;9.01;100.00
65173;BME280;69059;52.218;5.172;2023-04-09T01:50:57;101151.19;;;9.02;100.00
65173;BME280;69059;52.218;5.172;2023-04-09T01:53:25;101164.50;;;8.91;100.00
65173;BME280;69059;52.218;5.172;2023-04-09T01:55:53;101154.28;;;8.97;100.00
65173;BME280;69059;52.218;5.172;2023-04-09T01:58:22;101159.81;;;9.03;100.00
65173;BME280;69059;52.218;5.172;2023-04-09T02:00:56;101154.75;;;8.93;100.00
65173;BME280;69059;52.218;5.172;2023-04-09T02:03:30;101164.34;;;8.92;100.00
65173;BME280;69059;52.218;5.172;2023-04-09T02:06:06;101163.06;;;8.96;100.00
65173;BME280;69059;52.218;5.172;2023-04-09T02:08:34;101159.16;;;9.01;100.00
65173;BME280;69059;52.218;5.172;2023-04-09T02:11:03;101159.63;;;8.96;100.00
65173;BME280;69059;52.218;5.172;2023-04-09T02:13:32;101153.78;;;8.94;100.00
65173;BME280;69059;52.218;5.172;2023-04-09T02:16:03;101153.78;;;8.94;100.00
65173;BME280;69059;52.218;5.172;2023-04-09T02:18:31;101152.66;;;8.96;100.00
65173;BME280;69059;52.218;5.172;2023-04-09T02:20:59;101151.53;;;9.07;100.00
65173;BME280;69059;52.218;5.172;2023-04-09T02:23:27;101156.72;;;9.07;100.00
65173;BME280;69059;52.218;5.172;2023-04-09T02:25:55;101158.19;;;9.02;100.00
65173;BME280;69059;52.218;5.172;2023-04-09T02:28:23;101161.78;;;9.09;100.00
65173;BME280;69059;52.218;5.172;2023-04-09T02:30:50;101163.38;;;9.02;100.00
65173;BME280;69059;52.218;5.172;2023-04-09T02:33:19;101168.38;;;8.79;100.00
65173;BME280;69059;52.218;5.172;2023-04-09T02:35:47;101160.25;;;8.90;100.00
65173;BME280;69059;52.218;5.172;2023-04-09T02:38:15;101150.69;;;8.98;100.00
65173;BME280;69059;52.218;5.172;2023-04-09T02:40:43;101162.09;;;8.97;100.00
65173;BME280;69059;52.218;5.172;2023-04-09T02:43:11;101157.69;;;8.98;100.00
65173;BME280;69059;52.218;5.172;2023-04-09T02:45:38;101155.72;;;9.00;100.00
65173;BME280;69059;52.218;5.172;2023-04-09T02:48:06;101153.94;;;9.01;100.00
65173;BME280;69059;52.218;5.172;2023-04-09T02:50:35;101150.19;;;9.03;100.00
65173;BME280;69059;52.218;5.172;2023-04-09T02:53:03;101149.88;;;9.06;100.00
65173;BME280;69059;52.218;5.172;2023-04-09T02:55:31;101153.16;;;9.08;100.00
65173;BME280;69059;52.218;5.172;2023-04-09T02:57:59;101146.81;;;9.11;100.00
65173;BME280;69059;52.218;5.172;2023-04-09T03:00:27;101154.44;;;9.12;100.00
65173;BME280;69059;52.218;5.172;2023-04-09T03:02:55;101141.75;;;9.17;100.00
65173;BME280;69059;52.218;5.172;2023-04-09T03:05:23;101152.66;;;9.13;100.00
65173;BME280;69059;52.218;5.172;2023-04-09T03:07:53;101151.38;;;9.17;100.00
65173;BME280;69059;52.218;5.172;2023-04-09T03:10:21;101157.06;;;9.20;100.00
65173;BME280;69059;52.218;5.172;2023-04-09T03:12:49;101152.53;;;9.22;100.00
65173;BME280;69059;52.218;5.172;2023-04-09T03:15:17;101144.53;;;9.16;100.00
65173;BME280;69059;52.218;5.172;2023-04-09T03:17:44;101153.66;;;9.28;100.00
65173;BME280;69059;52.218;5.172;2023-04-09T03:20:12;101161.81;;;9.33;100.00
65173;BME280;69059;52.218;5.172;2023-04-09T03:22:40;101161.16;;;9.31;100.00
65173;BME280;69059;52.218;5.172;2023-04-09T03:25:10;101166.88;;;9.34;100.00
65173;BME280;69059;52.218;5.172;2023-04-09T03:27:37;101177.13;;;9.36;100.00
65173;BME280;69059;52.218;5.172;2023-04-09T03:30:06;101169.94;;;9.38;100.00
65173;BME280;69059;52.218;5.172;2023-04-09T03:32:33;101167.34;;;9.38;100.00
65173;BME280;69059;52.218;5.172;2023-04-09T03:35:01;101165.72;;;9.37;100.00
65173;BME280;69059;52.218;5.172;2023-04-09T03:37:29;101173.88;;;9.34;100.00
65173;BME280;69059;52.218;5.172;2023-04-09T03:39:57;101166.38;;;9.31;100.00
65173;BME280;69059;52.218;5.172;2023-04-09T03:42:26;101166.72;;;9.36;100.00
65173;BME280;69059;52.218;5.172;2023-04-09T03:44:54;101176.16;;;9.37;100.00
65173;BME280;69059;52.218;5.172;2023-04-09T03:47:21;101174.69;;;9.34;100.00
65173;BME280;69059;52.218;5.172;2023-04-09T03:49:49;101180.88;;;9.33;100.00
65173;BME280;69059;52.218;5.172;2023-04-09T03:52:17;101171.88;;;9.28;100.00
65173;BME280;69059;52.218;5.172;2023-04-09T03:54:45;101173.69;;;9.27;100.00
65173;BME280;69059;52.218;5.172;2023-04-09T03:57:12;101166.03;;;9.26;100.00
65173;BME280;69059;52.218;5.172;2023-04-09T03:59:42;101162.94;;;9.30;100.00
65173;BME280;69059;52.218;5.172;2023-04-09T04:02:10;101164.56;;;9.31;100.00
65173;BME280;69059;52.218;5.172;2023-04-09T04:04:38;101159.38;;;9.31;100.00
65173;BME280;69059;52.218;5.172;2023-04-09T04:07:06;101158.06;;;9.36;100.00
65173;BME280;69059;52.218;5.172;2023-04-09T04:09:34;101169.31;;;9.36;100.00
65173;BME280;69059;52.218;5.172;2023-04-09T04:12:03;101168.16;;;9.39;100.00
65173;BME280;69059;52.218;5.172;2023-04-09T04:14:30;101161.97;;;9.40;100.00
65173;BME280;69059;52.218;5.172;2023-04-09T04:16:59;101167.03;;;9.33;100.00
65173;BME280;69059;52.218;5.172;2023-04-09T04:19:27;101151.56;;;9.23;100.00
65173;BME280;69059;52.218;5.172;2023-04-09T04:21:55;101156.41;;;9.18;100.00
65173;BME280;69059;52.218;5.172;2023-04-09T04:24:22;101141.75;;;9.17;100.00
65173;BME280;69059;52.218;5.172;2023-04-09T04:26:50;101143.75;;;9.23;100.00
65173;BME280;69059;52.218;5.172;2023-04-09T04:29:18;101140.13;;;9.16;100.00
65173;BME280;69059;52.218;5.172;2023-04-09T04:31:46;101136.41;;;9.11;100.00
65173;BME280;69059;52.218;5.172;2023-04-09T04:34:15;101131.66;;;8.98;100.00
65173;BME280;69059;52.218;5.172;2023-04-09T04:36:42;101129.84;;;8.90;100.00
65173;BME280;69059;52.218;5.172;2023-04-09T04:39:10;101113.59;;;8.96;100.00
65173;BME280;69059;52.218;5.172;2023-04-09T04:41:38;101115.84;;;8.91;100.00
65173;BME280;69059;52.218;5.172;2023-04-09T04:44:06;101118.28;;;9.01;100.00
65173;BME280;69059;52.218;5.172;2023-04-09T04:46:33;101116.38;;;9.11;100.00
65173;BME280;69059;52.218;5.172;2023-04-09T04:49:01;101124.78;;;8.73;100.00
65173;BME280;69059;52.218;5.172;2023-04-09T04:51:30;101117.31;;;8.94;100.00
65173;BME280;69059;52.218;5.172;2023-04-09T04:53:58;101115.69;;;8.85;100.00
65173;BME280;69059;52.218;5.172;2023-04-09T04:56:26;101077.06;;;8.56;100.00
65173;BME280;69059;52.218;5.172;2023-04-09T04:58:54;101105.94;;;8.95;100.00
65173;BME280;69059;52.218;5.172;2023-04-09T05:01:21;101100.56;;;9.05;100.00
65173;BME280;69059;52.218;5.172;2023-04-09T05:03:49;101112.28;;;9.09;100.00
65173;BME280;69059;52.218;5.172;2023-04-09T05:06:17;101109.69;;;9.09;100.00
65173;BME280;69059;52.218;5.172;2023-04-09T05:08:46;101111.78;;;9.13;100.00
65173;BME280;69059;52.218;5.172;2023-04-09T05:11:14;101112.59;;;9.14;100.00
65173;BME280;69059;52.218;5.172;2023-04-09T05:13:42;101122.53;;;9.02;100.00
65173;BME280;69059;52.218;5.172;2023-04-09T05:16:15;101115.53;;;8.86;100.00
65173;BME280;69059;52.218;5.172;2023-04-09T05:18:43;101110.63;;;8.99;100.00
65173;BME280;69059;52.218;5.172;2023-04-09T05:21:11;101112.47;;;8.99;100.00
65173;BME280;69059;52.218;5.172;2023-04-09T05:23:39;101114.56;;;9.04;100.00
65173;BME280;69059;52.218;5.172;2023-04-09T05:26:09;101121.72;;;8.93;100.00
65173;BME280;69059;52.218;5.172;2023-04-09T05:28:37;101123.69;;;9.08;100.00
65173;BME280;69059;52.218;5.172;2023-04-09T05:31:04;101120.75;;;9.03;100.00
65173;BME280;69059;52.218;5.172;2023-04-09T05:33:37;101123.84;;;9.06;100.00
65173;BME280;69059;52.218;5.172;2023-04-09T05:36:05;101124.00;;;9.13;100.00
65173;BME280;69059;52.218;5.172;2023-04-09T05:38:33;101136.22;;;9.12;100.00
65173;BME280;69059;52.218;5.172;2023-04-09T05:41:01;101140.63;;;9.12;100.00
65173;BME280;69059;52.218;5.172;2023-04-09T05:43:30;101139.63;;;8.96;100.00
65173;BME280;69059;52.218;5.172;2023-04-09T05:45:58;101147.09;;;8.91;100.00
65173;BME280;69059;52.218;5.172;2023-04-09T05:48:26;101143.16;;;8.71;100.00
65173;BME280;69059;52.218;5.172;2023-04-09T05:50:54;101138.53;;;8.57;100.00
65173;BME280;69059;52.218;5.172;2023-04-09T05:53:22;101134.69;;;8.69;100.00
65173;BME280;69059;52.218;5.172;2023-04-09T05:55:50;101131.59;;;8.74;100.00
65173;BME280;69059;52.218;5.172;2023-04-09T05:58:17;101128.19;;;8.89;100.00
65173;BME280;69059;52.218;5.172;2023-04-09T06:00:46;101115.22;;;8.97;100.00
65173;BME280;69059;52.218;5.172;2023-04-09T06:03:16;101130.16;;;8.87;100.00
65173;BME280;69059;52.218;5.172;2023-04-09T06:05:45;101124.00;;;8.96;100.00
65173;BME280;69059;52.218;5.172;2023-04-09T06:08:13;101125.63;;;8.97;100.00
65173;BME280;69059;52.218;5.172;2023-04-09T06:10:41;101136.72;;;9.08;100.00
65173;BME280;69059;52.218;5.172;2023-04-09T06:13:09;101136.25;;;9.20;100.00
65173;BME280;69059;52.218;5.172;2023-04-09T06:15:37;101149.75;;;9.24;100.00
65173;BME280;69059;52.218;5.172;2023-04-09T06:18:06;101156.56;;;9.25;100.00
65173;BME280;69059;52.218;5.172;2023-04-09T06:20:34;101159.88;;;9.35;100.00
65173;BME280;69059;52.218;5.172;2023-04-09T06:23:01;101173.94;;;9.00;100.00
65173;BME280;69059;52.218;5.172;2023-04-09T06:25:29;101172.25;;;8.75;100.00
65173;BME280;69059;52.218;5.172;2023-04-09T06:27:57;101180.44;;;8.88;100.00
65173;BME280;69059;52.218;5.172;2023-04-09T06:30:25;101176.00;;;8.72;100.00
65173;BME280;69059;52.218;5.172;2023-04-09T06:32:52;101179.44;;;8.73;100.00
65173;BME280;69059;52.218;5.172;2023-04-09T06:35:22;101166.34;;;8.98;100.00
65173;BME280;69059;52.218;5.172;2023-04-09T06:37:50;101171.19;;;8.93;100.00
65173;BME280;69059;52.218;5.172;2023-04-09T06:40:18;101161.78;;;9.09;100.00
65173;BME280;69059;52.218;5.172;2023-04-09T06:42:48;101173.94;;;9.00;100.00
65173;BME280;69059;52.218;5.172;2023-04-09T06:45:16;101180.69;;;9.11;100.00
65173;BME280;69059;52.218;5.172;2023-04-09T06:47:44;101177.75;;;9.22;100.00
65173;BME280;69059;52.218;5.172;2023-04-09T06:50:11;101186.25;;;9.24;100.00
65173;BME280;69059;52.218;5.172;2023-04-09T06:52:40;101189.50;;;9.34;100.00
65173;BME280;69059;52.218;5.172;2023-04-09T06:55:08;101187.88;;;9.49;100.00
65173;BME280;69059;52.218;5.172;2023-04-09T06:57:36;101193.75;;;9.43;100.00
65173;BME280;69059;52.218;5.172;2023-04-09T07:00:06;101211.97;;;9.35;100.00
65173;BME280;69059;52.218;5.172;2023-04-09T07:02:35;101203.66;;;9.31;100.00
65173;BME280;69059;52.218;5.172;2023-04-09T07:05:04;101204.63;;;9.30;100.00
65173;BME280;69059;52.218;5.172;2023-04-09T07:07:31;101214.44;;;9.37;100.00
65173;BME280;69059;52.218;5.172;2023-04-09T07:10:01;101215.53;;;9.18;100.00
65173;BME280;69059;52.218;5.172;2023-04-09T07:12:30;101192.06;;;9.26;100.00
65173;BME280;69059;52.218;5.172;2023-04-09T07:14:58;101216.72;;;9.48;100.00
65173;BME280;69059;52.218;5.172;2023-04-09T07:17:26;101219.16;;;9.49;100.00
65173;BME280;69059;52.218;5.172;2023-04-09T07:19:54;101226.97;;;9.49;100.00
65173;BME280;69059;52.218;5.172;2023-04-09T07:22:23;101245.66;;;9.20;100.00
65173;BME280;69059;52.218;5.172;2023-04-09T07:24:52;101242.53;;;9.17;100.00
65173;BME280;69059;52.218;5.172;2023-04-09T07:27:23;101236.88;;;9.38;100.00
65173;BME280;69059;52.218;5.172;2023-04-09T07:29:53;101234.47;;;9.44;100.00
65173;BME280;69059;52.218;5.172;2023-04-09T07:32:21;101228.25;;;9.29;100.00
65173;BME280;69059;52.218;5.172;2023-04-09T07:34:50;101217.91;;;9.03;100.00
65173;BME280;69059;52.218;5.172;2023-04-09T07:37:18;101231.59;;;9.05;100.00
65173;BME280;69059;52.218;5.172;2023-04-09T07:39:46;101225.13;;;9.17;100.00
65173;BME280;69059;52.218;5.172;2023-04-09T07:42:14;101225.59;;;9.13;100.00
65173;BME280;69059;52.218;5.172;2023-04-09T07:44:43;101227.56;;;9.11;100.00
65173;BME280;69059;52.218;5.172;2023-04-09T07:47:11;101219.91;;;9.17;100.00
65173;BME280;69059;52.218;5.172;2023-04-09T07:49:39;101205.94;;;9.51;100.00
65173;BME280;69059;52.218;5.172;2023-04-09T07:52:06;101211.00;;;9.68;100.00
65173;BME280;69059;52.218;5.172;2023-04-09T07:54:34;101208.06;;;9.80;100.00
65173;BME280;69059;52.218;5.172;2023-04-09T07:57:02;101214.91;;;9.89;100.00
65173;BME280;69059;52.218;5.172;2023-04-09T07:59:30;101237.41;;;9.57;100.00
65173;BME280;69059;52.218;5.172;2023-04-09T08:01:59;101234.47;;;9.52;100.00
65173;BME280;69059;52.218;5.172;2023-04-09T08:04:27;101224.84;;;9.93;100.00
65173;BME280;69059;52.218;5.172;2023-04-09T08:06:55;101236.44;;;9.99;100.00
65173;BME280;69059;52.218;5.172;2023-04-09T08:09:23;101240.47;;;10.18;100.00
65173;BME280;69059;52.218;5.172;2023-04-09T08:11:51;101247.34;;;10.27;100.00
65173;BME280;69059;52.218;5.172;2023-04-09T08:14:18;101275.91;;;10.20;100.00
65173;BME280;69059;52.218;5.172;2023-04-09T08:16:46;101290.75;;;10.20;100.00
65173;BME280;69059;52.218;5.172;2023-04-09T08:19:17;101304.13;;;10.25;100.00
65173;BME280;69059;52.218;5.172;2023-04-09T08:21:45;101301.97;;;10.28;100.00
65173;BME280;69059;52.218;5.172;2023-04-09T08:24:14;101305.88;;;10.49;100.00
65173;BME280;69059;52.218;5.172;2023-04-09T08:26:43;101317.47;;;10.46;100.00
65173;BME280;69059;52.218;5.172;2023-04-09T08:29:11;101321.03;;;10.53;100.00
65173;BME280;69059;52.218;5.172;2023-04-09T08:31:39;101333.78;;;10.48;100.00
65173;BME280;69059;52.218;5.172;2023-04-09T08:34:08;101325.44;;;10.53;100.00
65173;BME280;69059;52.218;5.172;2023-04-09T08:36:37;101322.78;;;10.85;100.00
65173;BME280;69059;52.218;5.172;2023-04-09T08:39:05;101333.88;;;10.79;100.00
65173;BME280;69059;52.218;5.172;2023-04-09T08:41:33;101348.47;;;10.49;100.00
65173;BME280;69059;52.218;5.172;2023-04-09T08:44:03;101314.38;;;11.06;100.00
65173;BME280;69059;52.218;5.172;2023-04-09T08:46:30;101296.75;;;11.62;100.00
65173;BME280;69059;52.218;5.172;2023-04-09T08:48:58;101309.16;;;11.91;100.00
65173;BME280;69059;52.218;5.172;2023-04-09T08:51:26;101339.72;;;11.98;100.00
65173;BME280;69059;52.218;5.172;2023-04-09T08:53:56;101341.16;;;12.24;100.00
65173;BME280;69059;52.218;5.172;2023-04-09T08:56:29;101364.19;;;12.28;100.00
65173;BME280;69059;52.218;5.172;2023-04-09T08:58:56;101395.31;;;12.23;100.00
65173;BME280;69059;52.218;5.172;2023-04-09T09:01:25;101387.03;;;12.34;100.00
65173;BME280;69059;52.218;5.172;2023-04-09T09:03:56;101417.91;;;11.93;100.00
65173;BME280;69059;52.218;5.172;2023-04-09T09:06:28;101411.28;;;12.51;100.00
65173;BME280;69059;52.218;5.172;2023-04-09T09:09:01;101396.59;;;13.17;100.00
65173;BME280;69059;52.218;5.172;2023-04-09T09:11:29;101437.34;;;13.34;100.00
65173;BME280;69059;52.218;5.172;2023-04-09T09:13:57;101482.84;;;13.26;100.00
65173;BME280;69059;52.218;5.172;2023-04-09T09:16:25;101511.13;;;12.25;100.00
65173;BME280;69059;52.218;5.172;2023-04-09T09:18:53;101501.72;;;12.39;100.00
65173;BME280;69059;52.218;5.172;2023-04-09T09:21:24;101508.88;;;13.05;100.00
65173;BME280;69059;52.218;5.172;2023-04-09T09:23:52;101515.50;;;13.39;100.00
65173;BME280;69059;52.218;5.172;2023-04-09T09:26:23;101549.66;;;13.31;100.00
65173;BME280;69059;52.218;5.172;2023-04-09T09:28:52;101585.16;;;13.18;100.00
65173;BME280;69059;52.218;5.172;2023-04-09T09:31:21;101557.47;;;13.39;100.00
65173;BME280;69059;52.218;5.172;2023-04-09T09:33:49;101537.47;;;13.82;100.00
65173;BME280;69059;52.218;5.172;2023-04-09T09:36:30;101594.03;;;13.84;100.00
65173;BME280;69059;52.218;5.172;2023-04-09T09:38:59;101551.44;;;14.69;100.00
65173;BME280;69059;52.218;5.172;2023-04-09T09:41:30;101501.25;;;16.43;100.00
65173;BME280;69059;52.218;5.172;2023-04-09T09:43:58;101596.06;;;17.30;100.00
65173;BME280;69059;52.218;5.172;2023-04-09T09:46:26;101740.41;;;17.36;100.00
65173;BME280;69059;52.218;5.172;2023-04-09T09:48:54;101827.09;;;16.01;100.00
65173;BME280;69059;52.218;5.172;2023-04-09T09:51:24;101798.03;;;15.67;100.00
65173;BME280;69059;52.218;5.172;2023-04-09T09:53:55;101785.59;;;14.59;100.00
65173;BME280;69059;52.218;5.172;2023-04-09T09:56:26;101712.22;;;15.51;100.00
65173;BME280;69059;52.218;5.172;2023-04-09T09:59:05;101772.69;;;16.43;100.00
65173;BME280;69059;52.218;5.172;2023-04-09T10:01:34;101791.53;;;16.74;100.00
65173;BME280;69059;52.218;5.172;2023-04-09T10:04:03;101818.16;;;14.44;100.00
65173;BME280;69059;52.218;5.172;2023-04-09T10:06:32;101754.63;;;14.55;100.00
65173;BME280;69059;52.218;5.172;2023-04-09T10:09:03;101690.06;;;15.88;100.00
65173;BME280;69059;52.218;5.172;2023-04-09T10:11:32;101763.00;;;16.50;100.00
65173;BME280;69059;52.218;5.172;2023-04-09T10:14:03;101819.09;;;15.31;100.00
65173;BME280;69059;52.218;5.172;2023-04-09T10:16:31;101762.56;;;16.12;100.00
65173;BME280;69059;52.218;5.172;2023-04-09T10:19:00;101789.34;;;16.50;100.00
65173;BME280;69059;52.218;5.172;2023-04-09T10:21:33;101822.44;;;16.25;100.00
65173;BME280;69059;52.218;5.172;2023-04-09T10:24:04;101787.47;;;16.72;100.00
65173;BME280;69059;52.218;5.172;2023-04-09T10:26:34;101785.19;;;16.97;100.00
65173;BME280;69059;52.218;5.172;2023-04-09T10:29:07;101845.44;;;15.52;100.00
65173;BME280;69059;52.218;5.172;2023-04-09T10:31:51;101716.56;;;14.65;100.00
65173;BME280;69059;52.218;5.172;2023-04-09T10:34:21;101631.81;;;14.99;100.00
65173;BME280;69059;52.218;5.172;2023-04-09T10:36:50;101605.66;;;15.40;100.00
65173;BME280;69059;52.218;5.172;2023-04-09T10:39:19;101626.38;;;15.50;100.00
65173;BME280;69059;52.218;5.172;2023-04-09T10:41:47;101531.75;;;15.35;100.00
65173;BME280;69059;52.218;5.172;2023-04-09T10:44:21;101592.28;;;15.14;100.00
65173;BME280;69059;52.218;5.172;2023-04-09T10:46:51;101578.34;;;15.41;100.00
65173;BME280;69059;52.218;5.172;2023-04-09T10:49:21;101599.16;;;15.36;100.00
65173;BME280;69059;52.218;5.172;2023-04-09T10:51:51;101575.09;;;15.39;100.00
65173;BME280;69059;52.218;5.172;2023-04-09T10:54:39;101620.09;;;15.51;100.00
65173;BME280;69059;52.218;5.172;2023-04-09T10:57:13;101563.34;;;16.04;100.00
65173;BME280;69059;52.218;5.172;2023-04-09T10:59:44;101672.44;;;14.97;100.00
65173;BME280;69059;52.218;5.172;2023-04-09T11:05:31;101584.72;;;14.83;100.00
65173;BME280;69059;52.218;5.172;2023-04-09T11:08:04;101569.03;;;14.68;100.00
65173;BME280;69059;52.218;5.172;2023-04-09T11:10:32;101589.03;;;14.69;100.00
65173;BME280;69059;52.218;5.172;2023-04-09T11:13:01;101574.78;;;15.00;100.00
65173;BME280;69059;52.218;5.172;2023-04-09T11:15:31;101558.13;;;15.49;100.00
65173;BME280;69059;52.218;5.172;2023-04-09T11:17:59;101584.50;;;15.83;100.00
65173;BME280;69059;52.218;5.172;2023-04-09T11:20:27;101541.13;;;15.45;100.00
65173;BME280;69059;52.218;5.172;2023-04-09T11:22:57;101502.84;;;15.70;100.00
65173;BME280;69059;52.218;5.172;2023-04-09T11:25:27;101586.66;;;14.53;100.00
65173;BME280;69059;52.218;5.172;2023-04-09T11:27:55;101534.25;;;15.16;100.00
65173;BME280;69059;52.218;5.172;2023-04-09T11:30:23;101551.38;;;15.61;100.00
65173;BME280;69059;52.218;5.172;2023-04-09T11:32:53;101568.91;;;15.82;100.00
65173;BME280;69059;52.218;5.172;2023-04-09T11:35:21;101607.34;;;15.76;100.00
65173;BME280;69059;52.218;5.172;2023-04-09T11:37:49;101608.72;;;15.44;100.00
65173;BME280;69059;52.218;5.172;2023-04-09T11:40:19;101578.34;;;16.04;100.00
65173;BME280;69059;52.218;5.172;2023-04-09T11:42:49;101651.34;;;16.23;100.00
65173;BME280;69059;52.218;5.172;2023-04-09T11:45:18;101666.09;;;15.76;100.00
65173;BME280;69059;52.218;5.172;2023-04-09T11:47:46;101639.13;;;15.04;100.00
65173;BME280;69059;52.218;5.172;2023-04-09T11:50:15;101652.66;;;15.44;100.00
65173;BME280;69059;52.218;5.172;2023-04-09T11:52:44;101598.22;;;16.13;100.00
65173;BME280;69059;52.218;5.172;2023-04-09T11:55:21;101688.41;;;15.81;100.00
65173;BME280;69059;52.218;5.172;2023-04-09T11:57:51;101669.75;;;15.54;100.00
65173;BME280;69059;52.218;5.172;2023-04-09T12:00:19;101702.63;;;15.01;100.00
65173;BME280;69059;52.218;5.172;2023-04-09T12:02:58;101654.69;;;14.48;100.00
65173;BME280;69059;52.218;5.172;2023-04-09T12:05:29;101670.72;;;14.53;100.00
65173;BME280;69059;52.218;5.172;2023-04-09T12:07:59;101665.50;;;15.32;100.00
65173;BME280;69059;52.218;5.172;2023-04-09T12:10:28;101668.94;;;15.32;100.00
65173;BME280;69059;52.218;5.172;2023-04-09T12:13:00;101730.38;;;15.46;100.00
65173;BME280;69059;52.218;5.172;2023-04-09T12:15:31;101729.22;;;16.26;100.00
65173;BME280;69059;52.218;5.172;2023-04-09T12:17:59;101733.00;;;15.25;100.00
65173;BME280;69059;52.218;5.172;2023-04-09T12:20:33;101712.00;;;15.67;100.00
65173;BME280;69059;52.218;5.172;2023-04-09T12:23:02;101649.53;;;16.65;100.00
65173;BME280;69059;52.218;5.172;2023-04-09T12:25:32;101694.75;;;17.75;100.00
65173;BME280;69059;52.218;5.172;2023-04-09T12:28:01;101854.84;;;17.76;100.00
65173;BME280;69059;52.218;5.172;2023-04-09T12:30:29;101866.91;;;16.13;100.00
65173;BME280;69059;52.218;5.172;2023-04-09T12:32:58;101792.97;;;15.51;100.00
65173;BME280;69059;52.218;5.172;2023-04-09T12:35:26;101771.75;;;15.31;100.00
65173;BME280;69059;52.218;5.172;2023-04-09T12:37:56;101778.91;;;15.22;100.00
65173;BME280;69059;52.218;5.172;2023-04-09T12:40:24;101782.28;;;15.95;100.00
65173;BME280;69059;52.218;5.172;2023-04-09T12:42:52;101819.78;;;16.25;100.00
65173;BME280;69059;52.218;5.172;2023-04-09T12:45:20;101813.00;;;16.65;100.00
65173;BME280;69059;52.218;5.172;2023-04-09T12:47:48;101826.78;;;16.39;100.00
65173;BME280;69059;52.218;5.172;2023-04-09T12:50:16;101841.31;;;16.28;100.00
65173;BME280;69059;52.218;5.172;2023-04-09T12:52:44;101783.81;;;16.66;100.00
65173;BME280;69059;52.218;5.172;2023-04-09T12:55:14;101857.31;;;16.27;100.00
65173;BME280;69059;52.218;5.172;2023-04-09T12:57:43;101832.28;;;15.52;100.00